Terminal Aerodrome Forecast
Issued by NWS

Home | Current Version | Previous Version | Text Only | Print | Product List | Glossary On
Versions: 1 2 3 4 5 6 7 8 9 10 11 12 13 14 15
000
FTUS44 KCRP 251741
TAFLRD
TAF
KLRD 251741Z 2518/2618 09012KT P6SM VCTS BKN040CB BKN150
      TEMPO 2518/2522 4SM TSRA OVC030CB
     FM252200 10012KT P6SM VCTS BKN050CB BKN150
     FM260200 10010KT P6SM SCT050 BKN150
     FM261000 06004KT P6SM BKN020
     FM261500 08008KT P6SM VCSH SCT020 BKN035=

USA.gov is the U.S. government's official web portal to all federal, state and local government web resources and services.